Avant, OK

7:12 PM CST on January 25, 2015 (GMT -0600)
Claremore Regional | Change Station
CLOSE
Current Station
Airport
Location: Claremore,
Elevation: 725 ft
Nearby Weather Stations

Elev 725 ft 36.29 °N, 95.48 °W | Updated 17 minutes ago

Mostly Cloudy
Mostly Cloudy
43 °F
Feels Like 38 °F
N
8
Wind Variable Wind from North
Gusts 16 mph

Today
High -- | Low -- °F
--% Chance of Precip.
Yesterday
High -- | Low -- °F
Precip. -- in
7:30 AM 5:42 PM
Waxing Crescent, 37% visible
Pressure 30.11 in
Visibility 10.0 miles
Clouds Clear
Windchill 38 °F
Dew Point 32 °F
Humidity 66%
Rainfall 0.00 in
Snow Depth Not available.
UV 0 out of 12
Pollen 5.20 out of 12
Air Quality Not available.
Flu Activity Not available.
METAR KGCM 260055Z AUTO 36007G14KT 10SM CLR 06/00 A3011 RMK AO2

More Conditions Fewer Conditions

Pressure 30.11 in
Visibility 10.0 miles
Clouds Clear
Windchill 38 °F
Dew Point 32 °F
Humidity 66%
Rainfall 0.00 in
Snow Depth Not available.
UV 0 out of 12
Pollen 5.20 out of 12
Air Quality Not available.
Flu Activity Not available.
METAR KGCM 260055Z AUTO 36007G14KT 10SM CLR 06/00 A3011 RMK AO2

More Conditions Fewer Conditions

10-Day Weather Forecast

Almanac

Astronomy

Jan. 25, 2015 Rise Set
Actual Time
Civil Twilight
Nautical Twilight
Astronomical Twilight
Moon
Length of Visible Light
Length of Day
Tomorrow will be .
, % of the Moon is Illuminated

Today's Extremes

State Highs State Lows

Community

WunderPhotos

Upload Photos

1,790,037 photos uploaded!

WunderBlogs® & News

Nearby

Air Quality

  Air Quality AQ Index Pollutant
Not available.

Snow Depth

Station Depth Elevation

Earthquake Activity

City Distance Mag. Time & Date
Minimum magnitude displayed is 2.5.

Coastal Water Temperatures

Place Temperature

Nearby Weather Stations